Jonestown, Texas
Current Conditions -  °F | °C
As of 6:15 PM on Sunday 25 Jan 2015 (Local Time) from KRYW Reporting Station
Clear Clear  
Wind Chill: 61°   Ceiling: Unl
Heat Index: 61°   Visibility: 10mi
Dew Point: 29°   Wind: 7mph
Humidity: 30%   Direction: 320°NW
Pressure: 30.15"   Gusts: NA
Location:  30.4521°N, 97.9683°W
Report Text: KRYW 260015Z AUTO 32006KT 10SM CLR 16/M02 A3015 RMK AO2 T01611018
Loading
Personal Weather Stations






























Interactive Weather Map New forecast layout! Learn more

10-Day Weather Forecast

Advertisements
Track Severe Weather on mobile